createdAt,value
2018-07-09T00:02:26.169Z,102301.53
2018-07-09T00:04:54.662Z,102305.55
2018-07-09T00:07:23.153Z,102301.93
2018-07-09T00:09:51.679Z,102303.63
2018-07-09T00:12:20.236Z,102305.35
2018-07-09T00:14:48.728Z,102306.55
2018-07-09T00:17:17.272Z,102306.70
2018-07-09T00:19:45.772Z,102306.89
2018-07-09T00:22:14.230Z,102309.66
2018-07-09T00:24:42.785Z,102316.05
2018-07-09T00:27:11.210Z,102319.22
2018-07-09T00:29:39.695Z,102325.09
2018-07-09T00:32:08.188Z,102328.05
2018-07-09T00:34:36.803Z,102327.63
2018-07-09T00:37:05.674Z,102329.84
2018-07-09T00:39:34.346Z,102332.11
2018-07-09T00:42:02.857Z,102331.25
2018-07-09T00:44:31.327Z,102336.64
2018-07-09T00:46:59.951Z,102333.09
2018-07-09T00:49:28.515Z,102341.95
2018-07-09T00:51:57.256Z,102337.58
2018-07-09T00:54:25.936Z,102335.39
2018-07-09T00:56:54.422Z,102326.53
2018-07-09T00:59:22.940Z,102330.47
2018-07-09T01:01:51.467Z,102325.63
2018-07-09T01:04:19.992Z,102318.92
2018-07-09T01:06:48.489Z,102320.28
2018-07-09T01:09:17.029Z,102317.73
2018-07-09T01:11:46.795Z,102322.80
2018-07-09T01:14:15.531Z,102322.13
2018-07-09T01:16:44.028Z,102311.78
2018-07-09T01:19:12.656Z,102310.45
2018-07-09T01:21:41.191Z,102307.72
2018-07-09T01:24:09.764Z,102311.53
2018-07-09T01:26:38.290Z,102312.39
2018-07-09T01:29:06.849Z,102302.20
2018-07-09T01:31:35.441Z,102298.56
2018-07-09T01:34:03.884Z,102300.27
2018-07-09T01:36:32.433Z,102297.15
2018-07-09T01:39:00.966Z,102299.28
2018-07-09T01:41:29.572Z,102300.61
2018-07-09T01:43:58.008Z,102296.67
2018-07-09T01:46:26.549Z,102303.64
2018-07-09T01:48:55.093Z,102303.08
2018-07-09T01:51:23.636Z,102311.55
2018-07-09T01:53:52.151Z,102309.84
2018-07-09T01:56:23.715Z,102313.72
2018-07-09T01:58:52.197Z,102314.58
2018-07-09T02:01:20.684Z,102307.48
2018-07-09T02:03:49.311Z,102309.09
2018-07-09T02:06:17.917Z,102312.55
2018-07-09T02:08:46.436Z,102312.51
2018-07-09T02:11:15.220Z,102322.16
2018-07-09T02:13:43.670Z,102319.75
2018-07-09T02:16:12.185Z,102312.75
2018-07-09T02:18:40.625Z,102310.63
2018-07-09T02:21:09.172Z,102311.09
2018-07-09T02:23:37.645Z,102313.84
2018-07-09T02:26:06.212Z,102311.66
2018-07-09T02:31:02.369Z,102303.77
2018-07-09T02:33:30.854Z,102312.56
2018-07-09T02:35:59.329Z,102300.13
2018-07-09T02:38:28.110Z,102302.68
2018-07-09T02:40:56.557Z,102303.30
2018-07-09T02:43:25.056Z,102298.38
2018-07-09T02:45:53.553Z,102293.59
2018-07-09T02:48:22.048Z,102302.95
2018-07-09T02:50:50.516Z,102307.50
2018-07-09T02:53:19.004Z,102308.63
2018-07-09T02:55:47.487Z,102319.22
2018-07-09T02:58:15.964Z,102319.22
2018-07-09T03:00:44.514Z,102312.75
2018-07-09T03:03:12.988Z,102309.73
2018-07-09T03:05:41.452Z,102320.64
2018-07-09T03:08:10.093Z,102322.86
2018-07-09T03:10:38.569Z,102317.30
2018-07-09T03:13:07.050Z,102324.03
2018-07-09T03:15:35.552Z,102319.22
2018-07-09T03:18:04.048Z,102326.68
2018-07-09T03:20:32.610Z,102331.92
2018-07-09T03:23:01.096Z,102323.84
2018-07-09T03:25:29.785Z,102326.33
2018-07-09T03:27:58.206Z,102329.19
2018-07-09T03:30:26.737Z,102331.94
2018-07-09T03:32:55.218Z,102332.52
2018-07-09T03:35:23.752Z,102325.68
2018-07-09T03:37:52.307Z,102325.41
2018-07-09T03:40:20.778Z,102328.91
2018-07-09T03:42:49.233Z,102338.33
2018-07-09T03:45:26.450Z,102334.13
2018-07-09T03:47:55.018Z,102339.75
2018-07-09T03:50:23.621Z,102341.27
2018-07-09T03:52:52.065Z,102334.33
2018-07-09T03:55:20.620Z,102334.94
2018-07-09T03:57:49.171Z,102338.53
2018-07-09T04:00:18.566Z,102338.63
2018-07-09T04:02:47.057Z,102336.83
2018-07-09T04:05:15.618Z,102343.17
2018-07-09T04:07:44.111Z,102345.53
2018-07-09T04:10:12.587Z,102342.61
2018-07-09T04:12:41.009Z,102350.74
2018-07-09T04:15:13.253Z,102347.34
2018-07-09T04:17:41.721Z,102338.11
2018-07-09T04:20:10.222Z,102349.23
2018-07-09T04:22:38.762Z,102341.89
2018-07-09T04:25:07.274Z,102347.75
2018-07-09T04:27:35.800Z,102347.42
2018-07-09T04:30:04.387Z,102346.56
2018-07-09T04:32:32.891Z,102351.24
2018-07-09T04:35:01.408Z,102349.94
2018-07-09T04:37:29.977Z,102351.87
2018-07-09T04:39:58.475Z,102351.25
2018-07-09T04:42:26.905Z,102360.79
2018-07-09T04:44:55.562Z,102355.73
2018-07-09T04:47:24.142Z,102361.85
2018-07-09T04:49:52.608Z,102367.58
2018-07-09T04:52:21.081Z,102371.74
2018-07-09T04:54:49.605Z,102369.37
2018-07-09T04:57:18.106Z,102369.77
2018-07-09T04:59:46.636Z,102368.94
2018-07-09T05:02:15.320Z,102365.45
2018-07-09T05:04:43.793Z,102360.97
2018-07-09T05:07:12.284Z,102354.76
2018-07-09T05:09:40.765Z,102357.02
2018-07-09T05:12:09.184Z,102355.58
2018-07-09T05:14:37.733Z,102354.69
2018-07-09T05:17:06.391Z,102364.17
2018-07-09T05:19:34.852Z,102361.98
2018-07-09T05:22:03.389Z,102365.50
2018-07-09T05:24:31.832Z,102369.52
2018-07-09T05:27:00.349Z,102367.37
2018-07-09T05:29:28.825Z,102369.27
2018-07-09T05:31:57.300Z,102372.00
2018-07-09T05:34:25.785Z,102361.00
2018-07-09T05:36:54.316Z,102367.29
2018-07-09T05:39:22.911Z,102366.89
2018-07-09T05:41:51.477Z,102364.30
2018-07-09T05:44:20.562Z,102365.41
2018-07-09T05:46:49.044Z,102363.85
2018-07-09T05:49:17.606Z,102359.42
2018-07-09T05:51:47.048Z,102357.44
2018-07-09T05:54:15.621Z,102352.34
2018-07-09T05:56:44.269Z,102351.51
2018-07-09T05:59:12.745Z,102345.88
2018-07-09T06:01:41.337Z,102350.08
2018-07-09T06:04:09.875Z,102349.03
2018-07-09T06:06:38.539Z,102340.81
2018-07-09T06:09:08.952Z,102345.55
2018-07-09T06:11:37.444Z,102351.27
2018-07-09T06:14:06.108Z,102347.48
2018-07-09T06:16:34.586Z,102347.09
2018-07-09T06:19:03.186Z,102344.08
2018-07-09T06:21:31.850Z,102343.36
2018-07-09T06:24:00.954Z,102343.05
2018-07-09T06:26:29.480Z,102346.30
2018-07-09T06:28:58.019Z,102350.06
2018-07-09T06:31:26.690Z,102351.57
2018-07-09T06:33:55.105Z,102345.45
2018-07-09T06:36:23.622Z,102348.18
2018-07-09T06:38:52.151Z,102341.22
2018-07-09T06:41:20.722Z,102336.47
2018-07-09T06:43:49.195Z,102338.37
2018-07-09T06:46:17.698Z,102346.50
2018-07-09T06:48:46.282Z,102339.91
2018-07-09T06:51:14.851Z,102337.76
2018-07-09T06:53:43.396Z,102341.80
2018-07-09T06:56:11.846Z,102354.22
2018-07-09T06:58:40.417Z,102354.20
2018-07-09T07:01:08.997Z,102354.16
2018-07-09T07:03:37.474Z,102349.75
2018-07-09T07:06:06.017Z,102350.76
2018-07-09T07:08:34.554Z,102348.89
2018-07-09T07:11:03.274Z,102357.41
2018-07-09T07:13:31.736Z,102353.21
2018-07-09T07:16:00.323Z,102359.11
2018-07-09T07:18:28.884Z,102356.94
2018-07-09T07:20:57.503Z,102362.37
2018-07-09T07:23:26.225Z,102360.16
2018-07-09T07:25:54.783Z,102351.77
2018-07-09T07:28:23.458Z,102347.39
2018-07-09T07:30:52.029Z,102344.89
2018-07-09T07:33:20.510Z,102345.91
2018-07-09T07:35:49.117Z,102355.24
2018-07-09T07:38:17.706Z,102347.09
2018-07-09T07:40:46.328Z,102348.01
2018-07-09T07:43:14.821Z,102349.37
2018-07-09T07:45:43.329Z,102348.08
2018-07-09T07:48:11.921Z,102345.48
2018-07-09T07:50:40.536Z,102342.09
2018-07-09T07:53:09.012Z,102334.98
2018-07-09T07:55:37.584Z,102335.42
2018-07-09T07:58:06.120Z,102334.91
2018-07-09T08:00:34.630Z,102329.87
2018-07-09T08:03:03.326Z,102336.89
2018-07-09T08:05:31.679Z,102338.19
2018-07-09T08:08:00.243Z,102342.63
2018-07-09T08:10:28.728Z,102337.75
2018-07-09T08:13:13.442Z,102340.06
2018-07-09T08:15:25.783Z,102336.53
2018-07-09T08:17:54.291Z,102328.97
2018-07-09T08:20:22.773Z,102327.20
2018-07-09T08:22:51.360Z,102328.95
2018-07-09T08:25:19.845Z,102322.73
2018-07-09T08:27:48.395Z,102317.87
2018-07-09T08:30:16.900Z,102316.08
2018-07-09T08:32:45.485Z,102319.23
2018-07-09T08:35:14.065Z,102324.11
2018-07-09T08:37:42.645Z,102317.91
2018-07-09T08:40:11.253Z,102310.41
2018-07-09T08:42:39.850Z,102308.62
2018-07-09T08:45:08.410Z,102308.66
2018-07-09T08:47:36.883Z,102307.82
2018-07-09T08:50:05.464Z,102306.94
2018-07-09T08:52:34.082Z,102306.95
2018-07-09T08:55:02.666Z,102306.55
2018-07-09T08:57:31.137Z,102305.30
2018-07-09T08:59:59.699Z,102301.31
2018-07-09T09:02:28.337Z,102296.88
2018-07-09T09:04:56.859Z,102295.09
2018-07-09T09:07:25.520Z,102294.22
2018-07-09T09:09:53.985Z,102296.91
2018-07-09T09:12:22.412Z,102293.77
2018-07-09T09:14:51.020Z,102296.92
2018-07-09T09:17:19.629Z,102275.94
2018-07-09T09:19:48.163Z,102277.79
2018-07-09T09:22:16.699Z,102279.66
2018-07-09T09:24:45.213Z,102280.13
2018-07-09T09:27:13.684Z,102277.91
2018-07-09T09:29:42.213Z,102279.24
2018-07-09T09:32:10.730Z,102273.46
2018-07-09T09:34:39.349Z,102274.37
2018-07-09T09:37:08.156Z,102270.78
2018-07-09T09:39:37.041Z,102269.84
2018-07-09T09:42:05.951Z,102265.77
2018-07-09T09:44:34.567Z,102260.37
2018-07-09T09:47:03.151Z,102259.48
2018-07-09T09:49:31.642Z,102259.48
2018-07-09T09:52:00.218Z,102264.83
2018-07-09T09:54:28.739Z,102255.41
2018-07-09T09:56:57.293Z,102264.75
2018-07-09T09:59:25.933Z,102258.42
2018-07-09T10:01:54.447Z,102248.07
2018-07-09T10:04:23.002Z,102244.78
2018-07-09T10:06:51.579Z,102244.17
2018-07-09T10:09:20.242Z,102240.42
2018-07-09T10:11:48.738Z,102237.48
2018-07-09T10:14:17.235Z,102236.50
2018-07-09T10:16:45.709Z,102243.78
2018-07-09T10:19:14.525Z,102238.05
2018-07-09T10:21:43.291Z,102237.53
2018-07-09T10:24:11.799Z,102245.56
2018-07-09T10:26:40.497Z,102241.90
2018-07-09T10:29:09.047Z,102235.51
2018-07-09T10:31:37.724Z,102241.17
2018-07-09T10:34:06.228Z,102236.44
2018-07-09T10:36:35.416Z,102232.59
2018-07-09T10:39:05.199Z,102229.51
2018-07-09T10:41:33.701Z,102232.09
2018-07-09T10:44:02.206Z,102224.14
2018-07-09T10:46:30.749Z,102224.84
2018-07-09T10:48:59.329Z,102222.32
2018-07-09T10:51:27.804Z,102229.23
2018-07-09T10:53:56.286Z,102219.84
2018-07-09T10:56:24.806Z,102219.34
2018-07-09T10:58:53.366Z,102225.66
2018-07-09T11:01:22.178Z,102224.33
2018-07-09T11:03:50.785Z,102227.91
2018-07-09T11:06:19.373Z,102226.17
2018-07-09T11:08:48.078Z,102222.84
2018-07-09T11:11:16.689Z,102216.30
2018-07-09T11:13:45.206Z,102209.97
2018-07-09T11:16:13.718Z,102209.73
2018-07-09T11:18:42.281Z,102205.80
2018-07-09T11:21:10.847Z,102212.27
2018-07-09T11:23:39.376Z,102209.86
2018-07-09T11:26:08.545Z,102208.56
2018-07-09T11:28:37.165Z,102198.25
2018-07-09T11:31:05.696Z,102200.44
2018-07-09T11:33:34.386Z,102190.16
2018-07-09T11:36:03.022Z,102185.82
2018-07-09T11:38:31.576Z,102182.31
2018-07-09T11:41:00.029Z,102179.06
2018-07-09T11:43:28.487Z,102174.35
2018-07-09T11:45:57.095Z,102172.19
2018-07-09T11:48:25.906Z,102172.50
2018-07-09T11:50:54.609Z,102175.05
2018-07-09T11:53:23.931Z,102173.16
2018-07-09T11:55:52.566Z,102165.88
2018-07-09T11:58:21.167Z,102164.22
2018-07-09T12:00:49.888Z,102175.52
2018-07-09T12:03:18.380Z,102168.91
2018-07-09T12:05:46.978Z,102169.24
2018-07-09T12:08:15.566Z,102164.67
2018-07-09T12:10:44.152Z,102160.18
2018-07-09T12:13:12.693Z,102149.73
2018-07-09T12:15:41.336Z,102155.86
2018-07-09T12:18:10.041Z,102156.41
2018-07-09T12:20:38.598Z,102151.41
2018-07-09T12:23:07.238Z,102153.14
2018-07-09T12:25:35.908Z,102148.58
2018-07-09T12:28:04.625Z,102150.88
2018-07-09T12:30:33.270Z,102144.76
2018-07-09T12:33:01.905Z,102149.24
2018-07-09T12:35:30.493Z,102142.30
2018-07-09T12:37:59.064Z,102149.26
2018-07-09T12:40:27.645Z,102134.38
2018-07-09T12:42:56.387Z,102137.50
2018-07-09T12:45:25.102Z,102144.63
2018-07-09T12:47:53.601Z,102138.81
2018-07-09T12:50:22.193Z,102138.72
2018-07-09T12:52:50.759Z,102143.90
2018-07-09T12:55:19.492Z,102138.24
2018-07-09T12:57:48.068Z,102135.02
2018-07-09T13:00:16.643Z,102137.18
2018-07-09T13:02:45.245Z,102127.02
2018-07-09T13:05:13.854Z,102126.83
2018-07-09T13:07:42.504Z,102132.34
2018-07-09T13:10:10.996Z,102132.03
2018-07-09T13:12:39.593Z,102121.05
2018-07-09T13:15:08.161Z,102123.19
2018-07-09T13:17:37.617Z,102117.30
2018-07-09T13:20:06.239Z,102115.59
2018-07-09T13:22:34.784Z,102123.31
2018-07-09T13:25:03.226Z,102116.41
2018-07-09T13:27:33.398Z,102119.99
2018-07-09T13:30:02.036Z,102115.97
2018-07-09T13:32:30.595Z,102107.30
2018-07-09T13:34:59.218Z,102114.70
2018-07-09T13:37:27.871Z,102108.02
2018-07-09T13:39:56.473Z,102109.67
2018-07-09T13:42:25.483Z,102101.86
2018-07-09T13:44:54.050Z,102095.80
2018-07-09T13:47:22.537Z,102100.32
2018-07-09T13:49:51.088Z,102095.77
2018-07-09T13:52:19.652Z,102093.22
2018-07-09T13:54:48.303Z,102096.69
2018-07-09T13:57:16.805Z,102096.91
2018-07-09T13:59:45.367Z,102100.64
2018-07-09T14:02:13.877Z,102100.03
2018-07-09T14:04:42.324Z,102103.44
2018-07-09T14:07:10.846Z,102103.33
2018-07-09T14:09:39.339Z,102101.70
2018-07-09T14:12:08.201Z,102097.17
2018-07-09T14:14:36.680Z,102098.72
2018-07-09T14:17:05.181Z,102088.00
2018-07-09T14:20:42.303Z,102093.38
2018-07-09T14:23:12.177Z,102084.12
2018-07-09T14:25:40.854Z,102087.13
2018-07-09T14:28:09.447Z,102090.27
2018-07-09T14:30:38.057Z,102088.64
2018-07-09T14:33:06.822Z,102089.60
2018-07-09T14:35:35.390Z,102090.58
2018-07-09T14:38:04.033Z,102094.58
2018-07-09T14:40:32.670Z,102100.05
2018-07-09T14:43:01.286Z,102092.92
2018-07-09T14:45:29.754Z,102092.53
2018-07-09T14:47:58.213Z,102085.80
2018-07-09T14:50:26.827Z,102084.44
2018-07-09T14:52:56.087Z,102073.08
2018-07-09T14:55:24.576Z,102071.25
2018-07-09T14:57:55.145Z,102072.58
2018-07-09T15:00:23.760Z,102080.25
2018-07-09T15:02:52.304Z,102075.13
2018-07-09T15:05:20.846Z,102070.05
2018-07-09T15:07:49.374Z,102064.80
2018-07-09T15:10:17.957Z,102068.42
2018-07-09T15:12:46.537Z,102065.73
2018-07-09T15:15:15.096Z,102066.53
2018-07-09T15:17:43.824Z,102063.69
2018-07-09T15:20:12.426Z,102058.98
2018-07-09T15:22:41.044Z,102056.14
2018-07-09T15:25:09.642Z,102057.03
2018-07-09T15:27:38.329Z,102049.03
2018-07-09T15:30:07.156Z,102051.17
2018-07-09T15:32:35.749Z,102047.96
2018-07-09T15:35:04.311Z,102043.36
2018-07-09T15:37:32.856Z,102044.13
2018-07-09T15:40:01.326Z,102037.45
2018-07-09T15:42:29.935Z,102037.66
2018-07-09T15:44:58.459Z,102029.82
2018-07-09T15:47:26.973Z,102029.63
2018-07-09T15:49:55.495Z,102026.05
2018-07-09T15:52:23.973Z,102023.00
2018-07-09T15:54:52.464Z,102022.55
2018-07-09T15:57:20.944Z,102013.77
2018-07-09T15:59:49.488Z,102012.11
2018-07-09T16:02:17.982Z,102012.38
2018-07-09T16:04:46.613Z,102012.64
2018-07-09T16:07:15.064Z,102015.62
2018-07-09T16:09:43.628Z,102010.83
2018-07-09T16:12:12.289Z,102011.86
2018-07-09T16:14:40.798Z,102012.84
2018-07-09T16:17:09.244Z,102004.48
2018-07-09T16:19:37.707Z,102013.59
2018-07-09T16:22:06.644Z,102008.72
2018-07-09T16:24:35.133Z,102004.73
2018-07-09T16:27:03.645Z,102005.67
2018-07-09T16:29:32.161Z,102006.58
2018-07-09T16:32:00.617Z,102002.59
2018-07-09T16:34:29.152Z,102005.63
2018-07-09T16:36:57.696Z,102003.22
2018-07-09T16:39:26.214Z,102006.34
2018-07-09T16:41:54.848Z,102008.78
2018-07-09T16:44:23.487Z,102007.17
2018-07-09T16:46:52.194Z,102008.23
2018-07-09T16:49:20.600Z,102007.81
2018-07-09T16:51:49.035Z,102001.58
2018-07-09T16:54:17.629Z,102010.14
2018-07-09T16:56:46.238Z,102010.24
2018-07-09T16:59:14.881Z,102008.12
2018-07-09T17:01:43.617Z,102006.80
2018-07-09T17:04:12.285Z,102012.20
2018-07-09T17:06:40.736Z,102000.18
2018-07-09T17:09:09.207Z,102004.65
2018-07-09T17:11:37.681Z,101996.98
2018-07-09T17:14:06.202Z,101993.84
2018-07-09T17:16:34.777Z,101992.87
2018-07-09T17:19:03.305Z,101998.69
2018-07-09T17:21:31.846Z,101997.36
2018-07-09T17:24:00.468Z,101995.13
2018-07-09T17:26:29.087Z,101985.73
2018-07-09T17:29:00.424Z,101987.56
2018-07-09T17:31:28.889Z,101978.99
2018-07-09T17:33:59.284Z,101975.34
2018-07-09T17:36:27.947Z,101970.87
2018-07-09T17:38:56.444Z,101977.70
2018-07-09T17:41:25.781Z,101969.17
2018-07-09T17:43:54.947Z,101970.01
2018-07-09T17:46:24.471Z,101968.20
2018-07-09T17:48:53.058Z,101974.41
2018-07-09T17:51:21.616Z,101972.20
2018-07-09T17:53:50.086Z,101978.86
2018-07-09T17:56:18.614Z,101973.92
2018-07-09T17:58:47.085Z,101970.85
2018-07-09T18:01:15.694Z,101976.66
2018-07-09T18:03:45.052Z,101974.01
2018-07-09T18:06:13.715Z,101976.79
2018-07-09T18:08:42.323Z,101977.79
2018-07-09T18:11:10.890Z,101982.92
2018-07-09T18:13:39.448Z,101981.19
2018-07-09T18:16:07.878Z,101983.47
2018-07-09T18:18:36.331Z,101982.98
2018-07-09T18:21:04.820Z,101986.97
2018-07-09T18:23:33.295Z,101981.20
2018-07-09T18:26:04.236Z,101977.19
2018-07-09T18:28:32.788Z,101979.93
2018-07-09T18:31:04.875Z,101980.45
2018-07-09T18:33:33.385Z,101981.41
2018-07-09T18:36:01.861Z,101980.13
2018-07-09T18:38:30.454Z,101983.28
2018-07-09T18:40:58.912Z,101983.28
2018-07-09T18:43:27.362Z,101978.86
2018-07-09T18:45:56.384Z,101982.45
2018-07-09T18:48:24.953Z,101979.82
2018-07-09T18:50:53.657Z,101983.91
2018-07-09T18:53:22.213Z,101981.64
2018-07-09T18:55:50.787Z,101974.53
2018-07-09T18:58:19.375Z,101973.63
2018-07-09T19:00:48.011Z,101968.31
2018-07-09T19:03:16.585Z,101976.81
2018-07-09T19:05:56.495Z,101972.83
2018-07-09T19:08:25.213Z,101980.47
2018-07-09T19:10:53.737Z,101974.26
2018-07-09T19:13:22.240Z,101984.56
2018-07-09T19:15:50.903Z,101973.88
2018-07-09T19:18:31.117Z,101983.28
2018-07-09T19:21:39.365Z,101987.73
2018-07-09T19:24:08.136Z,101992.21
2018-07-09T19:26:35.592Z,101985.08
2018-07-09T19:29:02.872Z,101995.34
2018-07-09T19:31:30.128Z,101989.55
2018-07-09T19:33:57.385Z,101991.78
2018-07-09T19:36:27.851Z,101998.44
2018-07-09T19:38:55.190Z,102002.45
2018-07-09T19:41:22.458Z,102005.56
2018-07-09T19:43:49.707Z,102005.12
2018-07-09T19:46:17.088Z,102011.80
2018-07-09T19:48:47.341Z,102014.92
2018-07-09T19:51:14.606Z,102020.70
2018-07-09T19:53:42.241Z,102020.20
2018-07-09T19:56:09.488Z,102017.51
2018-07-09T19:58:36.787Z,102021.05
2018-07-09T20:01:04.047Z,102014.79
2018-07-09T20:03:31.314Z,102019.24
2018-07-09T20:05:58.817Z,102017.00
2018-07-09T20:08:31.379Z,102024.09
2018-07-09T20:11:04.262Z,102020.06
2018-07-09T20:14:02.845Z,102020.48
2018-07-09T20:16:36.039Z,102033.83
2018-07-09T20:19:04.664Z,102032.92
2018-07-09T20:21:32.709Z,102033.80
2018-07-09T20:24:02.404Z,102028.44
2018-07-09T20:26:30.643Z,102030.66
2018-07-09T20:28:58.545Z,102037.33
2018-07-09T20:31:26.150Z,102037.29
2018-07-09T20:33:54.176Z,102030.11
2018-07-09T20:36:22.254Z,102035.77
2018-07-09T20:38:50.321Z,102044.20
2018-07-09T20:41:17.723Z,102045.49
2018-07-09T20:43:45.443Z,102038.78
2018-07-09T20:46:13.040Z,102035.21
2018-07-09T20:48:41.448Z,102035.18
2018-07-09T20:51:28.703Z,102039.19
2018-07-09T20:53:57.012Z,102039.59
2018-07-09T20:56:24.972Z,102036.92
2018-07-09T20:58:53.229Z,102037.30
2018-07-09T21:01:21.401Z,102042.16
2018-07-09T21:03:53.778Z,102037.69
2018-07-09T21:06:22.058Z,102042.52
2018-07-09T21:08:50.021Z,102039.84
2018-07-09T21:11:18.465Z,102033.16
2018-07-09T21:13:46.805Z,102034.40
2018-07-09T21:16:15.140Z,102030.81
2018-07-09T21:18:43.279Z,102028.98
2018-07-09T21:21:11.810Z,102023.58
2018-07-09T21:23:40.058Z,102023.05
2018-07-09T21:26:08.792Z,102022.55
2018-07-09T21:28:37.360Z,102018.08
2018-07-09T21:31:05.747Z,102019.84
2018-07-09T21:33:34.119Z,102022.08
2018-07-09T21:36:02.144Z,102020.29
2018-07-09T21:38:29.490Z,102016.71
2018-07-09T21:41:02.236Z,102018.00
2018-07-09T21:43:29.606Z,102017.08
2018-07-09T21:45:56.952Z,102009.94
2018-07-09T21:48:29.794Z,102017.45
2018-07-09T21:50:51.860Z,102008.11
2018-07-09T21:53:19.114Z,102008.55
2018-07-09T21:55:46.424Z,102005.86
2018-07-09T21:58:37.576Z,101996.05
2018-07-09T22:01:05.239Z,101996.37
2018-07-09T22:03:32.538Z,101987.50
2018-07-09T22:05:59.796Z,101988.02
2018-07-09T22:08:27.069Z,101988.48
2018-07-09T22:10:54.351Z,101993.76
2018-07-09T22:13:21.614Z,101989.30
2018-07-09T22:15:48.894Z,101987.59
2018-07-09T22:18:16.478Z,101982.20
2018-07-09T22:20:43.759Z,101987.02
2018-07-09T22:23:11.024Z,101994.52
2018-07-09T22:25:38.293Z,101996.23
2018-07-09T22:28:05.588Z,101995.75
2018-07-09T22:30:34.162Z,101989.48
2018-07-09T22:33:02.906Z,101994.28
2018-07-09T22:35:31.410Z,101988.88
2018-07-09T22:37:59.868Z,101988.45
2018-07-09T22:40:28.324Z,101991.47
2018-07-09T22:42:57.037Z,101992.69
2018-07-09T22:45:25.727Z,101993.05
2018-07-09T22:47:54.203Z,101986.91
2018-07-09T22:50:22.697Z,101989.45
2018-07-09T22:52:51.183Z,101990.78
2018-07-09T22:55:30.958Z,101994.72
2018-07-09T22:58:08.833Z,102003.93
2018-07-09T23:00:37.278Z,102004.28
2018-07-09T23:03:13.295Z,102010.91
2018-07-09T23:05:41.768Z,102010.50
2018-07-09T23:08:10.528Z,101998.80
2018-07-09T23:11:26.584Z,101993.78
2018-07-09T23:17:12.239Z,101996.37
2018-07-09T23:20:24.313Z,101994.52
2018-07-09T23:22:51.729Z,101991.38
2018-07-09T23:25:18.985Z,101994.50
2018-07-09T23:27:46.222Z,102002.91
2018-07-09T23:30:13.470Z,102001.98
2018-07-09T23:32:40.731Z,101992.13
2018-07-09T23:35:07.967Z,102002.69
2018-07-09T23:37:35.238Z,101997.70
2018-07-09T23:40:02.503Z,101997.19
2018-07-09T23:42:29.751Z,102004.34
2018-07-09T23:44:57.011Z,101989.78
2018-07-09T23:47:24.268Z,101986.09
2018-07-09T23:49:51.513Z,101993.11
2018-07-09T23:52:18.777Z,101988.50
2018-07-09T23:54:46.201Z,101990.65
2018-07-09T23:57:36.508Z,101985.41
